Airfield :
LOGIN :

Register | Disclaimer

   EN    FR    IT 

 










Legend :    VFR   Marginal VFR   IFR   Intensive IFR   Very Intensive IFR
Visi :
Ceiling :
>= 8 km
>= 3000ft
5 to 8 km
1000 to 3000 ft
1500m to 5 km
500 to 1000 ft
800 to 1500m
200 to 500 ft
< 800m
< 200 ft
Symbols :   Thunderstorms  Fog  Heavy snow  Heavy precipitations  Wind > 20 kt
SIGMETs :     Misc.  Thunderstorms  Icing  Turbulence  Mountain Waves  Volcanic Ashes






- Airport Elevation : 821 ft
- IATA code : LYS


LFLL - Lyon St Exupéry / Satolas

CURRENT METAR :
  • 070330Z 04002KT 0300 R35L/0800N R17R/1000N R35R///// R17L/1000N FG VV/// 02/02 Q1018 NOSIG

EXPIRED METARs :
  • 070300Z VRB01KT 0300 R35L/0750N R17R/0800D R35R///// R17L/0800U FG VV/// 02/02 Q1018 NOSIG
  • 070230Z VRB02KT 0300 R35L/0800N R17R/0900N R35R///// R17L/0900D FG VV/// 02/02 Q1018 NOSIG
  • 070200Z VRB02KT 0400 R35L/1100D R17R/1100D R35R///// R17L/1200D FG OVC001 02/02 Q1018 NOSIG
  • 070130Z VRB02KT 0600 R35L/1800D R17R/P2000 R35R///// R17L/1600D FG BKN002 02/02 Q1018 NOSIG
  • 070100Z VRB02KT 3000 BR BKN003 02/01 Q1018 NOSIG

TAF AMD TAF LFLL
Valid from the 07 at 02:00 until the 08 at 06:00 UTC


070256Z 0702/0806 36003KT 0800 FG VV///
TEMPO 0702/0710 0200
PROB30
TEMPO 0702/0708 0600 -DZ FG VV///
BECMG 0710/0712 6000 OVC007
PROB30
TEMPO 0714/0718 OVC012
BECMG 0719/0721 3000 BR OVC004
PROB40
TEMPO 0721/0806 0500 FG VV///



MET'MAP, your aeronautical weather chart ! - Copyright ORBIFLY December 2007 - Disclaimer

ORBIFLY MET'MAP TEAM :

Programming & Development : Alexandra Zaïnal
Original concept : Baudouin d'Aumeries
Technical & hardware support : Manuel Goepfert
Assistance : Marc-Olivier Méhu




SOURCES & CREDITS :

   NOAA